Time;durP1;ratioP1;P1;durP2;ratioP2;P2;SDS_P1;SDS_P2;PMS_P1;PMS_P2;Temp;Humidity;BMP_temperature;BMP_pressure;BME280_temperature;BME280_humidity;BME280_pressure;Samples;Min_cycle;Max_cycle;Signal;HPM_P1;HPM_P2
2022/09/22 00:01:30;;;;;;;2.22;0.80;;;;;;;17.15;38.22;98798.66;5011290;28;20122;-74
2022/09/22 00:03:58;;;;;;;0.93;0.60;;;;;;;17.15;38.18;98799.47;4995697;28;20571;-73
2022/09/22 00:06:28;;;;;;;3.28;1.45;;;;;;;17.22;38.17;98806.75;4979011;28;20518;-72
2022/09/22 00:08:59;;;;;;;0.70;0.55;;;;;;;17.22;38.04;98804.97;4995124;28;20417;-73
2022/09/22 00:11:27;;;;;;;1.45;0.60;;;;;;;17.22;38.05;98802.31;4979419;28;20028;-72
2022/09/22 00:13:54;;;;;;;;;;;;;;;17.24;38.08;98799.53;5011535;28;20029;-73
2022/09/22 00:16:23;;;;;;;1.75;0.73;;;;;;;17.20;38.12;98806.09;4995230;28;19917;-73
2022/09/22 00:18:48;;;;;;;;;;;;;;;17.19;38.01;98802.63;4995826;28;20065;-73
2022/09/22 00:21:18;;;;;;;0.75;0.50;;;;;;;17.15;38.43;98803.91;5012076;28;20353;-73
2022/09/22 00:23:44;;;;;;;0.75;0.50;;;;;;;17.14;38.29;98808.38;5012309;28;20030;-73
2022/09/22 00:26:12;;;;;;;0.47;0.40;;;;;;;17.15;38.26;98794.19;4994855;28;20033;-75
2022/09/22 00:28:38;;;;;;;3.20;0.77;;;;;;;17.14;38.31;98791.72;4978539;28;20608;-72
2022/09/22 00:31:10;;;;;;;1.55;0.77;;;;;;;17.15;38.44;98796.00;4994592;28;20061;-75
2022/09/22 00:33:36;;;;;;;0.98;0.50;;;;;;;17.12;38.29;98783.94;5011300;28;20085;-72
2022/09/22 00:36:02;;;;;;;1.10;0.70;;;;;;;17.14;38.38;98789.91;4995048;28;20100;-72
2022/09/22 00:38:28;;;;;;;0.88;0.43;;;;;;;17.15;38.39;98793.38;5011068;28;20030;-72
2022/09/22 00:40:54;;;;;;;0.68;0.52;;;;;;;17.16;38.32;98795.84;4993762;28;20136;-72
2022/09/22 00:43:27;;;;;;;0.50;0.40;;;;;;;17.16;38.50;98790.56;4994379;28;20021;-74
2022/09/22 00:46:02;;;;;;;1.67;0.55;;;;;;;17.15;38.29;98785.47;4995274;28;20030;-74
2022/09/22 00:48:29;;;;;;;2.13;0.43;;;;;;;17.18;38.24;98793.06;5011027;28;20508;-72
2022/09/22 00:50:54;;;;;;;0.75;0.45;;;;;;;17.14;38.07;98784.63;5012988;28;20466;-73
2022/09/22 00:53:20;;;;;;;1.17;0.47;;;;;;;17.17;38.00;98786.97;4981721;28;20022;-72
2022/09/22 00:55:57;;;;;;;1.00;0.50;;;;;;;17.17;38.14;98786.13;4981366;28;20037;-72
2022/09/22 00:58:28;;;;;;;0.95;0.60;;;;;;;17.14;37.77;98773.25;4982778;28;20033;-72
2022/09/22 01:00:53;;;;;;;0.80;0.50;;;;;;;17.20;38.06;98783.16;4981905;28;20374;-72
2022/09/22 01:03:21;;;;;;;1.80;0.60;;;;;;;17.17;37.99;98779.06;5015809;28;20033;-72
2022/09/22 01:05:47;;;;;;;0.85;0.50;;;;;;;17.18;38.05;98783.31;5014257;28;20044;-72
2022/09/22 01:08:13;;;;;;;1.02;0.63;;;;;;;17.18;38.00;98774.59;4998470;28;20089;-72
2022/09/22 01:10:38;;;;;;;1.48;0.40;;;;;;;17.14;38.03;98782.00;5014383;28;20034;-72
2022/09/22 01:13:23;;;;;;;1.10;0.50;;;;;;;17.18;38.00;98782.50;5013903;28;20032;-72
2022/09/22 01:16:29;;;;;;;1.15;0.55;;;;;;;17.18;37.98;98782.50;5013835;28;20029;-73
2022/09/22 01:19:20;;;;;;;0.47;0.40;;;;;;;17.17;38.01;98780.84;5003383;28;20057;-73
2022/09/22 01:22:21;;;;;;;0.50;0.43;;;;;;;17.16;37.80;98780.03;5013888;28;20168;-72
2022/09/22 01:25:06;;;;;;;1.92;0.60;;;;;;;17.16;37.86;98785.31;5014359;28;20018;-74
2022/09/22 01:27:53;;;;;;;1.60;0.65;;;;;;;17.11;37.87;98770.91;5015062;28;20025;-74
2022/09/22 01:30:23;;;;;;;1.23;0.50;;;;;;;17.12;37.60;98773.41;5000062;28;20050;-74
2022/09/22 01:33:07;;;;;;;0.50;0.30;;;;;;;17.13;37.62;98779.53;4997445;28;20033;-74
2022/09/22 01:35:41;;;;;;;0.73;0.40;;;;;;;17.16;37.63;98790.56;5015383;28;20118;-73
2022/09/22 01:38:39;;;;;;;2.22;0.50;;;;;;;17.14;37.71;98789.91;5013937;28;20038;-73
2022/09/22 01:41:20;;;;;;;0.75;0.50;;;;;;;17.14;37.64;98784.63;4954174;29;20503;-73
2022/09/22 01:43:57;;;;;;;1.58;0.70;;;;;;;17.12;37.56;98786.59;4938691;29;20035;-73
2022/09/22 01:46:39;;;;;;;0.50;0.43;;;;;;;17.07;37.61;98785.44;4922399;29;20047;-73
2022/09/22 01:49:07;;;;;;;1.02;0.57;;;;;;;17.03;37.61;98782.28;4923772;29;20135;-73
2022/09/22 01:51:47;;;;;;;0.52;0.40;;;;;;;17.03;37.57;98782.28;4938403;29;20047;-73
2022/09/22 01:54:27;;;;;;;0.75;0.50;;;;;;;17.03;37.43;98795.47;4938023;29;20024;-72
2022/09/22 01:56:56;;;;;;;1.10;0.60;;;;;;;17.02;37.34;98801.72;4923151;29;20423;-73
2022/09/22 01:59:23;;;;;;;2.85;0.70;;;;;;;16.94;37.46;98789.31;4954115;28;20097;-73
2022/09/22 02:01:51;;;;;;;1.25;0.57;;;;;;;16.90;37.54;98785.31;4953913;28;20045;-73
2022/09/22 02:04:19;;;;;;;3.65;0.70;;;;;;;16.93;37.48;98798.19;4938119;29;20046;-73
2022/09/22 02:07:17;;;;;;;1.27;0.80;;;;;;;16.91;37.58;98786.16;4953839;29;20039;-72
2022/09/22 02:09:42;;;;;;;4.35;1.40;;;;;;;16.89;37.59;98790.75;4899570;29;20095;-73
2022/09/22 02:12:07;;;;;;;4.53;1.50;;;;;;;16.82;37.65;98782.63;4899888;29;20501;-73
2022/09/22 02:14:33;;;;;;;1.48;1.20;;;;;;;16.85;37.95;98784.13;4899914;29;20083;-74
2022/09/22 02:16:58;;;;;;;2.47;1.30;;;;;;;16.84;37.68;98785.94;4924714;28;20053;-73
2022/09/22 02:19:29;;;;;;;3.05;1.30;;;;;;;16.79;38.06;98780.28;4992787;28;20109;-73
2022/09/22 02:21:54;;;;;;;2.75;1.10;;;;;;;16.77;37.93;98774.34;4959882;28;20022;-73
2022/09/22 02:24:25;;;;;;;3.30;1.25;;;;;;;16.74;38.09;98772.84;4976288;28;20042;-73
2022/09/22 02:26:50;;;;;;;3.50;1.30;;;;;;;16.72;38.33;98777.47;4976195;28;20461;-73
2022/09/22 02:29:16;;;;;;;3.08;1.33;;;;;;;16.66;38.44;98774.63;4975536;28;20085;-73
2022/09/22 02:31:42;;;;;;;3.15;1.20;;;;;;;16.67;38.53;98773.63;4976207;28;20077;-72
2022/09/22 02:34:07;;;;;;;3.97;1.17;;;;;;;16.64;38.67;98765.06;4975785;28;20030;-74
2022/09/22 02:36:42;;;;;;;2.63;1.20;;;;;;;16.62;38.74;98769.66;4975816;28;20487;-74
2022/09/22 02:39:48;;;;;;;1.42;0.80;;;;;;;16.59;39.09;98763.88;4992181;28;20057;-74
2022/09/22 02:42:37;;;;;;;1.42;1.00;;;;;;;16.53;39.25;98761.84;4953646;29;20191;-74
2022/09/22 02:45:16;;;;;;;1.00;0.60;;;;;;;16.51;39.26;98766.44;4906335;29;20043;-74
2022/09/22 02:47:53;;;;;;;1.05;0.65;;;;;;;16.48;39.29;98774.66;4906320;29;20495;-74
2022/09/22 02:50:20;;;;;;;1.25;0.70;;;;;;;16.44;39.35;98772.31;4921480;29;20047;-74
2022/09/22 02:52:48;;;;;;;2.17;0.90;;;;;;;16.40;39.35;98771.00;4936914;29;20554;-74
2022/09/22 02:55:15;;;;;;;2.05;0.77;;;;;;;16.40;39.64;98778.91;4905606;29;20045;-74
2022/09/22 02:57:42;;;;;;;1.10;0.60;;;;;;;16.40;39.46;98783.34;4921450;29;20086;-74
2022/09/22 03:00:08;;;;;;;2.70;0.80;;;;;;;16.38;39.50;98775.59;4921497;29;20046;-75
2022/09/22 03:02:33;;;;;;;1.05;0.70;;;;;;;16.35;39.61;98775.91;4909905;29;20035;-74
2022/09/22 03:04:59;;;;;;;1.50;0.88;;;;;;;16.37;39.77;98789.72;4903447;29;20508;-74
2022/09/22 03:07:24;;;;;;;0.93;0.60;;;;;;;16.37;39.81;98783.66;4952501;29;20098;-74
2022/09/22 03:09:50;;;;;;;1.08;0.80;;;;;;;16.34;39.77;98782.13;4952431;29;20434;-74
2022/09/22 03:12:15;;;;;;;1.15;0.73;;;;;;;16.32;40.00;98778.84;4951993;28;20166;-74
2022/09/22 03:14:41;;;;;;;1.33;0.85;;;;;;;16.30;39.89;98775.50;4942896;29;20038;-74
2022/09/22 03:17:06;;;;;;;2.55;1.00;;;;;;;16.30;40.02;98782.59;4978564;28;20494;-74
2022/09/22 03:19:32;;;;;;;2.75;0.85;;;;;;;16.28;40.16;98785.38;4983434;28;20097;-74
2022/09/22 03:21:57;;;;;;;1.13;0.93;;;;;;;16.27;40.16;98784.56;5000671;28;20042;-74
2022/09/22 03:24:23;;;;;;;0.90;0.70;;;;;;;16.23;40.27;98777.13;4999394;28;20037;-74
2022/09/22 03:26:48;;;;;;;1.98;0.90;;;;;;;16.23;40.26;98780.56;5002027;28;20026;-74
2022/09/22 03:29:14;;;;;;;3.00;0.98;;;;;;;16.19;40.27;98776.59;5001869;28;20479;-74
2022/09/22 03:31:39;;;;;;;3.35;0.70;;;;;;;16.21;40.32;98789.63;5002708;28;20032;-75
2022/09/22 03:34:05;;;;;;;1.48;0.80;;;;;;;16.19;40.24;98786.28;4971892;28;20029;-74
2022/09/22 03:36:30;;;;;;;1.13;0.80;;;;;;;16.15;40.55;98790.22;4969953;28;20037;-75
2022/09/22 03:38:56;;;;;;;1.45;0.98;;;;;;;16.07;40.68;98785.69;5004166;28;20057;-76
2022/09/22 03:41:21;;;;;;;1.20;0.82;;;;;;;16.07;40.81;98794.41;4988617;28;20084;-76
2022/09/22 03:43:47;;;;;;;1.77;0.85;;;;;;;16.03;40.78;98793.06;4986185;28;20021;-76
2022/09/22 03:46:13;;;;;;;2.55;0.82;;;;;;;15.97;40.92;98787.56;5003342;28;20033;-75
2022/09/22 03:48:38;;;;;;;3.55;0.85;;;;;;;15.95;41.03;98789.53;4987776;28;20033;-75
2022/09/22 03:51:04;;;;;;;1.45;0.85;;;;;;;15.98;41.16;98797.13;4986272;28;20022;-75
2022/09/22 03:53:29;;;;;;;3.08;1.17;;;;;;;15.96;41.22;98804.38;4987446;28;20025;-75
2022/09/22 03:56:06;;;;;;;2.00;0.98;;;;;;;15.92;41.45;98801.19;5021108;28;20569;-76
2022/09/22 03:58:31;;;;;;;1.92;1.00;;;;;;;15.94;41.44;98809.78;4988828;28;20030;-74
2022/09/22 04:00:57;;;;;;;1.98;0.90;;;;;;;15.92;41.44;98803.81;4985699;28;20420;-75
2022/09/22 04:03:23;;;;;;;2.35;1.00;;;;;;;15.91;41.54;98810.88;4987624;28;20473;-74
2022/09/22 04:05:49;;;;;;;1.83;1.02;;;;;;;15.90;41.57;98814.50;4981680;28;20053;-74
2022/09/22 04:08:15;;;;;;;3.58;1.27;;;;;;;15.87;41.93;98812.16;4962785;28;20465;-75
2022/09/22 04:10:40;;;;;;;3.70;1.60;;;;;;;15.86;41.72;98812.31;4962564;28;20022;-75
2022/09/22 04:13:06;;;;;;;3.65;2.13;;;;;;;15.86;41.75;98807.88;4961929;28;20048;-75
2022/09/22 04:15:32;;;;;;;3.70;2.25;;;;;;;15.93;41.81;98817.81;4995127;28;20033;-74
2022/09/22 04:17:58;;;;;;;6.03;2.20;;;;;;;16.21;41.06;98819.41;4994693;28;20033;-75
2022/09/22 04:20:23;;;;;;;6.90;2.83;;;;;;;16.77;39.86;98806.81;4994772;28;20041;-74
2022/09/22 04:22:49;;;;;;;5.80;2.22;;;;;;;17.09;39.21;98818.56;4978374;28;20038;-74
2022/09/22 04:25:14;;;;;;;4.20;2.58;;;;;;;17.77;37.89;98814.19;5013300;28;20026;-75
2022/09/22 04:27:40;;;;;;;4.25;2.50;;;;;;;18.68;36.66;98816.94;4982529;28;20076;-73
2022/09/22 04:30:06;;;;;;;5.32;2.42;;;;;;;19.41;35.31;98820.41;4981692;28;20482;-74
2022/09/22 04:32:31;;;;;;;6.70;2.60;;;;;;;20.15;34.02;98817.41;4982319;28;20044;-74
2022/09/22 04:34:57;;;;;;;5.20;2.55;;;;;;;20.18;33.69;98822.34;4998342;28;20034;-74
2022/09/22 04:37:22;;;;;;;4.93;2.80;;;;;;;19.81;34.49;98823.88;4998749;28;20505;-74
2022/09/22 04:39:49;;;;;;;6.78;2.75;;;;;;;19.82;34.58;98814.94;4998054;28;20046;-74
2022/09/22 04:42:14;;;;;;;4.00;2.38;;;;;;;19.66;34.84;98811.34;4981319;28;20514;-74
2022/09/22 04:44:40;;;;;;;6.22;2.88;;;;;;;19.24;35.68;98815.16;4982146;28;20026;-75
2022/09/22 04:47:05;;;;;;;5.25;2.45;;;;;;;18.96;36.01;98812.97;5016001;28;20069;-75
2022/09/22 04:49:31;;;;;;;7.45;2.78;;;;;;;18.72;36.39;98805.88;5015821;28;20037;-74
2022/09/22 04:51:56;;;;;;;5.72;2.70;;;;;;;18.60;36.53;98812.50;4981548;28;20180;-76
2022/09/22 04:54:22;;;;;;;5.60;2.75;;;;;;;18.57;36.58;98810.19;4981684;28;20179;-75
2022/09/22 04:56:47;;;;;;;8.77;2.75;;;;;;;18.44;36.82;98814.16;4998171;28;20492;-75
2022/09/22 04:59:14;;;;;;;9.05;2.97;;;;;;;18.36;37.13;98826.53;4981204;28;20088;-76
2022/09/22 05:01:40;;;;;;;4.82;2.47;;;;;;;18.30;37.25;98819.28;4982050;28;20029;-74
2022/09/22 05:04:05;;;;;;;5.43;2.70;;;;;;;18.24;37.30;98820.75;4998123;28;20026;-76
2022/09/22 05:06:31;;;;;;;4.18;2.42;;;;;;;18.19;37.56;98823.88;4981682;28;20034;-75
2022/09/22 05:08:56;;;;;;;4.43;2.20;;;;;;;18.65;37.01;98818.09;4965002;28;20488;-74
2022/09/22 05:11:23;;;;;;;7.05;2.30;;;;;;;18.62;36.84;98815.78;4982078;28;20026;-75
2022/09/22 05:13:49;;;;;;;8.20;2.80;;;;;;;18.46;37.52;98810.53;4981757;28;20038;-75
2022/09/22 05:16:15;;;;;;;7.88;2.15;;;;;;;18.28;37.49;98811.50;4965339;28;20461;-76
2022/09/22 05:18:41;;;;;;;5.70;2.47;;;;;;;18.21;37.92;98816.59;4965772;28;20040;-74
2022/09/22 05:21:07;;;;;;;9.38;2.50;;;;;;;18.18;37.75;98816.94;4981681;28;20030;-76
2022/09/22 05:23:33;;;;;;;6.45;2.70;;;;;;;18.10;38.25;98830.13;4965011;28;20041;-76
2022/09/22 05:25:58;;;;;;;6.85;2.50;;;;;;;18.12;38.24;98829.97;4965159;28;20065;-76
2022/09/22 05:28:24;;;;;;;6.80;2.20;;;;;;;18.07;38.18;98825.19;5014999;28;20037;-75
2022/09/22 05:30:50;;;;;;;5.85;2.15;;;;;;;18.07;38.25;98838.38;4978328;28;20062;-75
2022/09/22 05:33:16;;;;;;;4.90;1.90;;;;;;;18.06;38.44;98834.94;4978204;28;20492;-75
2022/09/22 05:35:41;;;;;;;5.63;1.98;;;;;;;18.96;37.06;98831.47;4977618;28;20031;-76
2022/09/22 05:38:07;;;;;;;4.25;1.60;;;;;;;19.60;36.01;98830.59;4945767;28;20035;-75
2022/09/22 05:40:32;;;;;;;5.15;1.65;;;;;;;20.85;34.15;98831.41;4977757;28;20478;-74
2022/09/22 05:42:58;;;;;;;4.28;1.30;;;;;;;22.15;31.97;98825.47;4960898;28;20049;-75
2022/09/22 05:45:23;;;;;;;2.55;1.20;;;;;;;23.11;30.27;98821.59;4961712;28;20043;-75
2022/09/22 05:47:49;;;;;;;1.58;0.90;;;;;;;23.90;28.91;98820.28;4977804;28;20034;-73
2022/09/22 05:50:16;;;;;;;2.58;1.00;;;;;;;24.89;27.72;98820.56;4976718;28;20478;-77
2022/09/22 05:52:41;;;;;;;4.13;1.23;;;;;;;25.65;29.70;98827.16;4961559;28;20562;-75
2022/09/22 05:55:07;;;;;;;4.07;1.10;;;;;;;25.37;29.98;98825.63;4977756;28;20034;-76
2022/09/22 05:57:33;;;;;;;13.02;1.10;;;;;;;25.87;28.54;98833.03;4991802;28;20084;-76
2022/09/22 05:59:58;;;;;;;2.03;0.82;;;;;;;26.76;26.65;98821.50;4997170;28;20038;-74
2022/09/22 06:02:24;;;;;;;1.90;0.65;;;;;;;26.64;25.97;98826.75;4981391;28;20030;-75
2022/09/22 06:04:50;;;;;;;5.25;0.60;;;;;;;26.06;26.67;98830.47;4996687;28;20449;-75
2022/09/22 06:07:16;;;;;;;3.42;1.02;;;;;;;25.97;26.76;98825.38;4980562;28;20030;-75
2022/09/22 06:09:41;;;;;;;5.20;1.00;;;;;;;25.44;27.95;98823.75;4996891;28;20037;-76
2022/09/22 06:12:07;;;;;;;5.82;2.15;;;;;;;24.95;28.38;98832.28;4996399;28;20038;-76
2022/09/22 06:14:33;;;;;;;7.00;1.67;;;;;;;24.84;28.32;98831.88;5012058;28;20505;-77
2022/09/22 06:17:00;;;;;;;4.85;1.52;;;;;;;24.39;29.99;98831.66;4981094;28;20038;-76
2022/09/22 06:19:27;;;;;;;2.97;1.35;;;;;;;24.14;30.91;98832.22;5002653;28;20117;-74
2022/09/22 06:21:53;;;;;;;2.20;1.10;;;;;;;24.20;31.21;98830.63;4961403;28;20022;-75
2022/09/22 06:24:18;;;;;;;3.38;1.80;;;;;;;24.36;30.93;98814.19;4977097;28;20033;-72
2022/09/22 06:26:44;;;;;;;3.08;1.40;;;;;;;25.48;29.34;98823.34;4992457;28;20034;-71
2022/09/22 06:29:10;;;;;;;5.50;1.60;;;;;;;26.34;28.89;98816.69;4995010;28;20046;-72
2022/09/22 06:31:36;;;;;;;6.50;1.38;;;;;;;27.19;27.51;98815.31;4979864;28;20030;-71
2022/09/22 06:34:01;;;;;;;4.35;1.20;;;;;;;27.92;26.37;98813.59;4980699;28;20069;-72
2022/09/22 06:36:30;;;;;;;10.75;1.35;;;;;;;28.65;25.23;98811.69;4971387;28;20041;-73
2022/09/22 06:39:01;;;;;;;6.90;1.00;;;;;;;29.27;23.68;98816.56;4988158;28;20125;-80
2022/09/22 06:41:27;;;;;;;3.10;1.38;;;;;;;29.59;22.22;98808.06;4988122;28;20025;-75
2022/09/22 06:43:56;;;;;;;2.50;1.20;;;;;;;30.10;22.07;98819.78;4972440;28;20044;-74
2022/09/22 06:46:23;;;;;;;4.80;0.85;;;;;;;29.74;22.17;98823.66;4984246;28;20030;-74
2022/09/22 06:48:50;;;;;;;3.13;1.50;;;;;;;29.73;22.13;98827.41;4992287;28;20033;-72
2022/09/22 06:51:16;;;;;;;2.10;1.10;;;;;;;29.21;22.51;98826.41;4991447;28;20080;-72
2022/09/22 06:53:43;;;;;;;2.95;1.20;;;;;;;28.65;22.90;98820.53;4982930;28;20057;-73
2022/09/22 06:56:08;;;;;;;4.13;1.07;;;;;;;29.47;22.44;98815.34;4998698;28;20053;-72
2022/09/22 06:58:34;;;;;;;2.75;1.38;;;;;;;29.09;22.68;98830.13;4972723;28;20303;-73
2022/09/22 07:01:05;;;;;;;4.28;1.70;;;;;;;28.76;22.95;98824.28;4987666;28;20037;-74
2022/09/22 07:03:32;;;;;;;6.65;1.55;;;;;;;28.72;22.97;98833.03;4972169;28;20021;-74
2022/09/22 07:05:59;;;;;;;2.90;1.80;;;;;;;28.68;23.50;98833.50;4969915;28;20509;-74
2022/09/22 07:08:25;;;;;;;4.55;2.10;;;;;;;29.42;22.65;98837.56;4987773;28;20017;-74
2022/09/22 07:10:55;;;;;;;4.03;1.20;;;;;;;30.69;21.01;98826.66;4971782;28;20113;-76
2022/09/22 07:13:21;;;;;;;3.25;1.30;;;;;;;32.00;19.44;98834.28;4969117;28;20029;-74
2022/09/22 07:15:47;;;;;;;1.80;1.08;;;;;;;32.92;18.82;98845.03;4994494;28;20049;-75
2022/09/22 07:18:13;;;;;;;2.35;1.60;;;;;;;34.08;17.68;98845.00;4994042;28;20044;-75
2022/09/22 07:20:39;;;;;;;1.80;1.08;;;;;;;35.18;15.92;98853.59;4976568;28;20049;-76
2022/09/22 07:23:09;;;;;;;4.13;1.10;;;;;;;36.58;14.26;98858.00;4977090;28;20406;-74
2022/09/22 07:25:35;;;;;;;4.63;1.00;;;;;;;38.04;12.85;98857.97;4971968;28;20048;-74
2022/09/22 07:28:04;;;;;;;2.75;0.73;;;;;;;39.62;11.48;98867.97;4977729;28;20026;-78
2022/09/22 07:30:30;;;;;;;18.27;2.53;;;;;;;36.83;13.18;98861.59;4978099;28;20115;-72
2022/09/22 07:32:56;;;;;;;20.88;1.98;;;;;;;34.40;14.88;98871.84;4976165;28;20100;-76
2022/09/22 07:35:22;;;;;;;9.00;1.40;;;;;;;32.94;15.69;98859.94;4994447;28;20442;-72
2022/09/22 07:37:55;;;;;;;6.20;2.50;;;;;;;32.01;17.00;98868.31;5012930;28;20405;-75
2022/09/22 07:40:21;;;;;;;10.57;7.43;;;;;;;34.18;15.10;98863.16;4981390;28;20052;-75
2022/09/22 07:42:49;;;;;;;3.92;2.47;;;;;;;33.87;15.27;98857.66;4996469;28;20619;-77
2022/09/22 07:45:15;;;;;;;14.23;9.18;;;;;;;32.09;17.58;98859.78;4996972;28;20041;-73
2022/09/22 07:50:28;;;;;;;40.40;29.13;;;;;;;30.10;20.99;98870.91;5015878;28;20099;-74
2022/09/22 07:52:54;;;;;;;36.97;15.65;;;;;;;29.34;21.93;98862.16;4976287;28;20064;-75
2022/09/22 07:55:24;;;;;;;11.57;5.35;;;;;;;28.60;21.80;98860.72;4993401;28;20120;-73
2022/09/22 07:57:56;;;;;;;9.80;3.65;;;;;;;28.09;23.19;98873.63;4978359;28;20025;-77
2022/09/22 08:00:23;;;;;;;5.03;2.58;;;;;;;27.54;22.54;98861.09;4960601;28;20030;-73
2022/09/22 08:02:56;;;;;;;3.10;2.30;;;;;;;27.11;22.65;98871.88;4960687;28;20045;-74
2022/09/22 08:05:22;;;;;;;8.95;3.10;;;;;;;26.68;25.04;98873.50;4977263;28;20647;-74
2022/09/22 08:07:48;;;;;;;4.20;2.10;;;;;;;26.51;24.12;98862.47;4960939;28;20040;-74
2022/09/22 08:10:14;;;;;;;2.65;1.00;;;;;;;26.61;23.17;98870.00;4960858;28;20026;-74
2022/09/22 08:12:41;;;;;;;3.35;1.08;;;;;;;26.68;22.88;98878.84;4993055;28;20091;-73
2022/09/22 08:15:07;;;;;;;2.00;0.80;;;;;;;26.31;23.82;98878.66;4977313;28;20559;-75
2022/09/22 08:17:33;;;;;;;6.10;0.90;;;;;;;26.29;24.58;98873.53;4960946;28;20034;-74
2022/09/22 08:20:00;;;;;;;1.75;0.95;;;;;;;26.26;24.19;98875.81;4993178;28;20034;-74
2022/09/22 08:22:27;;;;;;;1.25;0.57;;;;;;;25.93;23.74;98879.47;4996967;28;20026;-74
2022/09/22 08:24:52;;;;;;;1.15;0.57;;;;;;;25.68;24.21;98874.84;4996449;28;20037;-72
2022/09/22 08:27:18;;;;;;;2.35;0.88;;;;;;;25.66;25.09;98871.56;4996285;28;20025;-72
2022/09/22 08:29:45;;;;;;;1.52;0.70;;;;;;;25.57;24.89;98857.63;4995998;28;20553;-74
2022/09/22 08:32:11;;;;;;;2.35;0.60;;;;;;;25.52;25.98;98868.09;4995982;28;20047;-74
2022/09/22 08:34:37;;;;;;;4.50;1.25;;;;;;;25.35;25.24;98867.78;4995987;28;20029;-72
2022/09/22 08:37:03;;;;;;;3.47;0.80;;;;;;;25.13;26.09;98861.00;5013012;28;20421;-77
2022/09/22 08:39:29;;;;;;;2.85;0.95;;;;;;;24.80;27.16;98862.69;4997063;28;20497;-77
2022/09/22 08:42:03;;;;;;;3.42;1.40;;;;;;;24.48;27.57;98869.63;4981045;28;20124;-75
2022/09/22 08:44:36;;;;;;;4.28;0.90;;;;;;;24.37;26.35;98868.41;4996786;28;20073;-84
2022/09/22 08:47:01;;;;;;;34.10;2.10;;;;;;;24.10;26.29;98863.00;4991500;28;20022;-77
2022/09/22 08:52:40;;;;;;;14.10;2.10;;;;;;;23.95;27.85;98857.81;5022845;28;20119;-77
2022/09/22 08:55:26;;;;;;;6.82;1.10;;;;;;;25.43;25.64;98862.19;4970389;28;20073;-75
2022/09/22 08:58:06;;;;;;;3.90;0.90;;;;;;;25.70;23.96;98858.59;4986196;28;20033;-79
2022/09/22 09:00:36;;;;;;;63.20;2.92;;;;;;;25.27;24.43;98854.63;4986838;28;20084;-79
2022/09/22 09:03:16;;;;;;;38.70;2.25;;;;;;;25.40;24.91;98854.59;4966087;28;20179;-77
2022/09/22 09:05:54;;;;;;;12.77;1.20;;;;;;;25.14;24.69;98855.44;5004026;28;20026;-77
2022/09/22 09:08:47;;;;;;;36.25;3.72;;;;;;;24.96;25.82;98853.44;4986669;28;20056;-76
2022/09/22 09:11:37;;;;;;;14.63;1.33;;;;;;;25.07;26.20;98854.66;5021152;28;20053;-75
2022/09/22 09:14:26;;;;;;;5.07;0.60;;;;;;;25.64;25.58;98846.91;5008298;28;20021;-78
2022/09/22 09:17:11;;;;;;;26.00;1.40;;;;;;;27.07;23.84;98845.53;5006978;28;20017;-76
2022/09/22 09:19:41;;;;;;;5.45;0.70;;;;;;;26.97;23.44;98842.53;5006659;28;20071;-76
2022/09/22 09:22:39;;;;;;;7.28;2.90;;;;;;;26.26;23.94;98851.75;5005680;28;20052;-77
2022/09/22 09:25:29;;;;;;;11.77;1.67;;;;;;;25.82;24.87;98844.34;4974945;28;20085;-76
2022/09/22 09:27:57;;;;;;;6.47;1.13;;;;;;;25.37;25.12;98852.34;4966261;28;20069;-78
2022/09/22 09:30:22;;;;;;;6.35;1.20;;;;;;;25.05;28.56;98854.84;4958426;28;20058;-71
2022/09/22 09:32:59;;;;;;;5.82;1.23;;;;;;;25.03;28.96;98856.09;4975034;28;20424;-73
2022/09/22 09:35:51;;;;;;;10.40;1.40;;;;;;;25.03;29.60;98856.09;4965673;28;20506;-74
2022/09/22 09:38:28;;;;;;;8.85;1.02;;;;;;;24.98;29.81;98859.38;4987066;28;20481;-73
2022/09/22 09:41:21;;;;;;;6.13;1.27;;;;;;;25.01;30.02;98853.63;4973532;28;20086;-70
2022/09/22 09:43:47;;;;;;;2.47;0.90;;;;;;;24.90;30.50;98849.72;4962683;28;20170;-69
2022/09/22 09:46:29;;;;;;;3.40;1.20;;;;;;;24.89;30.68;98848.09;4990710;28;20034;-71
2022/09/22 09:49:34;;;;;;;4.38;1.17;;;;;;;24.87;30.73;98852.81;4962130;28;20035;-74
2022/09/22 09:52:00;;;;;;;2.67;1.05;;;;;;;24.82;31.06;98843.78;4891968;29;20185;-73
2022/09/22 09:54:26;;;;;;;8.80;1.20;;;;;;;24.84;31.89;98853.25;4861850;29;20502;-74
2022/09/22 09:57:11;;;;;;;15.82;1.50;;;;;;;24.85;32.40;98848.72;4861888;29;20128;-73
2022/09/22 10:02:34;;;;;;;8.82;1.10;;;;;;;24.92;33.29;98846.84;4914775;29;20080;-74
2022/09/22 10:05:12;;;;;;;11.57;1.42;;;;;;;25.06;33.48;98836.97;4914182;29;20487;-73
2022/09/22 10:07:43;;;;;;;8.35;2.00;;;;;;;25.05;34.28;98835.34;4913185;29;20140;-74
2022/09/22 10:10:27;;;;;;;82.55;20.50;;;;;;;24.96;34.26;98836.59;4914520;29;20032;-75
2022/09/22 10:12:53;;;;;;;47.25;15.75;;;;;;;24.75;33.55;98830.47;4915371;29;20056;-73
2022/09/22 10:15:23;;;;;;;87.53;23.75;;;;;;;24.50;33.76;98822.22;4883759;29;20063;-75
2022/09/22 10:17:49;;;;;;;91.82;23.15;;;;;;;24.46;33.78;98815.66;4915070;29;20040;-76
2022/09/22 10:20:32;;;;;;;60.58;18.05;;;;;;;24.54;33.38;98818.09;4917124;29;20102;-75
2022/09/22 10:23:18;;;;;;;73.90;22.70;;;;;;;25.06;32.60;98821.78;4886953;29;20036;-75
2022/09/22 10:25:44;;;;;;;67.75;24.35;;;;;;;25.29;32.59;98823.19;4956980;28;20064;-75
2022/09/22 10:28:19;;;;;;;36.25;14.88;;;;;;;25.67;32.01;98822.41;4982778;28;20124;-75
2022/09/22 10:31:03;;;;;;;32.50;12.25;;;;;;;25.94;31.48;98815.06;5015145;28;20060;-75
2022/09/22 10:33:29;;;;;;;15.20;5.78;;;;;;;26.06;32.51;98819.75;5000049;28;20026;-74
2022/09/22 10:36:05;;;;;;;214.65;117.20;;;;;;;26.46;33.25;98822.16;4982860;28;20056;-76
2022/09/22 10:38:33;;;;;;;753.25;390.63;;;;;;;26.53;33.44;98821.06;4982420;28;20021;-80
2022/09/22 10:41:06;;;;;;;808.43;381.07;;;;;;;26.56;31.79;98827.81;4982264;28;20033;-75
2022/09/22 10:43:41;;;;;;;407.63;181.00;;;;;;;26.45;30.01;98820.50;5000129;28;20030;-77
2022/09/22 10:46:48;;;;;;;152.20;70.05;;;;;;;26.25;29.10;98824.16;4998783;28;20068;-77
2022/09/22 10:49:16;;;;;;;491.40;260.25;;;;;;;26.14;28.59;98825.69;4971944;28;20069;-76
2022/09/22 10:52:12;;;;;;;274.77;114.88;;;;;;;26.43;29.63;98812.69;4955177;28;20190;-75
2022/09/22 10:54:52;;;;;;;990.47;495.77;;;;;;;26.57;29.58;98812.56;4941067;28;20053;-76
2022/09/22 10:57:44;;;;;;;532.28;238.13;;;;;;;26.49;28.65;98811.84;4955712;28;20190;-78
2022/09/22 11:00:20;;;;;;;378.00;154.73;;;;;;;26.68;28.60;98809.25;4955315;28;20050;-75
2022/09/22 11:03:04;;;;;;;883.08;471.65;;;;;;;26.74;27.90;98792.28;4955656;28;20035;-75
2022/09/22 11:12:28;;;;;;;232.90;113.65;;;;;;;26.81;26.87;98797.59;4957006;28;20037;-82
2022/09/22 11:15:15;;;;;;;134.20;60.65;;;;;;;26.71;24.89;98803.44;4971853;28;20054;-82
2022/09/22 11:18:10;;;;;;;180.25;82.60;;;;;;;26.70;26.00;98799.13;4954603;28;20035;-77
2022/09/22 11:21:15;;;;;;;53.70;27.27;;;;;;;26.70;24.51;98794.56;4952950;28;20058;-80
2022/09/22 11:23:56;;;;;;;29.20;14.95;;;;;;;26.51;23.68;98793.69;4962883;28;20035;-75
2022/09/22 11:26:47;;;;;;;28.33;14.57;;;;;;;26.35;24.51;98795.06;4963630;28;20079;-74
2022/09/22 11:29:43;;;;;;;14.93;6.88;;;;;;;26.24;23.77;98805.66;5007850;28;20099;-77
2022/09/22 11:32:30;;;;;;;40.17;19.33;;;;;;;26.10;26.31;98796.91;4987983;28;20069;-74
2022/09/22 11:35:14;;;;;;;32.13;14.35;;;;;;;26.06;26.84;98795.69;4987489;28;20092;-78
2022/09/22 11:37:48;;;;;;;12.38;4.35;;;;;;;25.97;25.58;98803.16;5002643;28;20493;-72
2022/09/22 11:40:19;;;;;;;26.92;13.40;;;;;;;25.88;29.59;98805.22;5019759;28;20033;-73
2022/09/22 11:42:45;;;;;;;24.17;14.57;;;;;;;25.88;27.92;98804.41;5002532;28;20083;-73
2022/09/22 11:45:42;;;;;;;50.67;21.65;;;;;;;25.90;28.31;98802.34;5003845;28;20026;-74
2022/09/22 11:48:35;;;;;;;133.20;33.88;;;;;;;25.86;29.80;98807.31;4987006;28;20030;-73
2022/09/22 11:51:04;;;;;;;78.32;23.13;;;;;;;25.77;29.35;98805.91;5002137;28;20037;-73
2022/09/22 11:53:38;;;;;;;21.98;6.10;;;;;;;25.68;25.40;98805.34;5001864;28;20026;-73
2022/09/22 11:56:25;;;;;;;6.78;3.83;;;;;;;25.51;25.08;98797.00;5002298;28;20037;-73
2022/09/22 11:58:51;;;;;;;42.13;19.50;;;;;;;25.46;28.26;98800.31;5020893;28;20102;-74
2022/09/22 12:01:23;;;;;;;34.97;14.75;;;;;;;25.51;27.51;98788.16;4973847;28;20479;-74
2022/09/22 12:04:08;;;;;;;38.00;14.30;;;;;;;25.47;27.87;98782.41;4969947;28;20061;-73